Time;durP1;ratioP1;P1;durP2;ratioP2;P2;SDS_P1;SDS_P2;PMS_P1;PMS_P2;Temp;Humidity;BMP_temperature;BMP_pressure;BME280_temperature;BME280_humidity;BME280_pressure;Samples;Min_cycle;Max_cycle;Signal;HPM_P1;HPM_P2
2022/11/01 05:00:31;;;;;;;18.37;10.70;;;13.80;99.90;;;;;;6039435;23;21650;-71
2022/11/01 05:03:02;;;;;;;26.90;13.10;;;13.80;99.90;;;;;;6101667;23;20936;-70
2022/11/01 05:05:29;;;;;;;24.30;12.03;;;13.80;99.90;;;;;;6093494;23;20432;-70
2022/11/01 05:08:00;;;;;;;20.43;13.07;;;13.70;99.90;;;;;;6094454;23;20426;-70
2022/11/01 05:10:27;;;;;;;24.20;11.80;;;13.80;99.90;;;;;;6093846;23;20751;-70
2022/11/01 05:12:54;;;;;;;19.57;12.40;;;13.70;99.90;;;;;;6092007;23;20892;-70
2022/11/01 05:15:22;;;;;;;23.03;12.40;;;13.70;99.90;;;;;;6091709;23;20427;-69
2022/11/01 05:17:48;;;;;;;18.30;12.90;;;13.70;99.90;;;;;;6092609;23;20446;-69
2022/11/01 05:20:15;;;;;;;14.53;11.03;;;13.70;99.90;;;;;;6094583;23;20749;-68
2022/11/01 05:22:42;;;;;;;27.23;13.13;;;13.70;99.90;;;;;;6093424;23;20428;-69
2022/11/01 05:25:09;;;;;;;18.77;12.03;;;13.70;99.90;;;;;;6093442;23;20427;-69
2022/11/01 05:27:36;;;;;;;24.40;12.40;;;13.70;99.90;;;;;;6093129;23;20428;-70
2022/11/01 05:30:03;;;;;;;27.90;12.57;;;13.70;99.90;;;;;;6093089;23;20916;-70
2022/11/01 05:32:31;;;;;;;25.53;12.47;;;13.70;99.90;;;;;;6091384;23;20922;-70
2022/11/01 05:34:58;;;;;;;27.03;12.50;;;13.60;99.90;;;;;;6093219;23;20431;-70
2022/11/01 05:37:24;;;;;;;21.97;10.57;;;13.60;99.90;;;;;;6093291;23;20445;-69
2022/11/01 05:39:51;;;;;;;29.47;13.63;;;13.60;99.90;;;;;;6092883;23;20984;-70
2022/11/01 05:42:18;;;;;;;24.73;12.77;;;13.60;99.90;;;;;;6092668;23;20433;-70
2022/11/01 05:44:44;;;;;;;23.73;14.43;;;13.60;99.90;;;;;;6091881;23;20442;-70
2022/11/01 05:47:11;;;;;;;19.00;10.23;;;13.60;99.90;;;;;;6092706;23;20929;-70
2022/11/01 05:49:39;;;;;;;24.53;13.67;;;13.60;99.90;;;;;;6093543;23;20467;-70
2022/11/01 05:52:06;;;;;;;19.97;12.13;;;13.50;99.90;;;;;;6091212;23;20930;-70
2022/11/01 05:54:32;;;;;;;30.60;12.33;;;13.50;99.90;;;;;;6090556;23;20446;-70
2022/11/01 05:56:59;;;;;;;25.13;14.20;;;13.50;99.90;;;;;;6091365;23;20434;-70
2022/11/01 05:59:26;;;;;;;37.47;15.53;;;13.50;99.90;;;;;;6093091;23;20452;-71
2022/11/01 06:01:52;;;;;;;26.10;14.47;;;13.60;99.90;;;;;;6092812;23;20451;-70
2022/11/01 06:04:19;;;;;;;19.67;14.10;;;13.60;99.90;;;;;;6091064;23;20422;-71
2022/11/01 06:06:47;;;;;;;21.20;12.60;;;13.50;99.90;;;;;;6092686;23;20907;-71
2022/11/01 06:09:14;;;;;;;19.03;10.97;;;13.50;99.90;;;;;;6093271;23;20780;-71
2022/11/01 06:11:40;;;;;;;23.80;11.77;;;13.50;99.90;;;;;;6093020;23;20539;-71
2022/11/01 06:14:10;;;;;;;21.10;12.50;;;13.50;99.90;;;;;;6091862;23;20431;-71
2022/11/01 06:16:37;;;;;;;23.27;12.40;;;13.50;99.90;;;;;;6092484;23;20427;-70
2022/11/01 06:19:03;;;;;;;25.97;13.20;;;13.50;99.90;;;;;;6092532;23;20459;-71
2022/11/01 06:21:30;;;;;;;26.03;13.80;;;13.50;99.90;;;;;;6093297;23;20459;-71
2022/11/01 06:23:58;;;;;;;18.30;11.90;;;13.50;99.90;;;;;;6092066;23;20434;-70
2022/11/01 06:26:25;;;;;;;23.30;12.27;;;13.50;99.90;;;;;;6093013;23;20425;-70
2022/11/01 06:28:51;;;;;;;21.33;13.30;;;13.50;99.90;;;;;;6092999;23;20447;-71
2022/11/01 06:31:18;;;;;;;20.13;12.90;;;13.50;99.90;;;;;;6093059;23;20423;-71
2022/11/01 06:33:45;;;;;;;26.17;15.80;;;13.50;99.90;;;;;;6091294;23;20436;-70
2022/11/01 06:36:11;;;;;;;20.00;13.00;;;13.50;99.90;;;;;;6092857;23;21019;-70
2022/11/01 06:38:39;;;;;;;21.50;12.53;;;13.50;99.90;;;;;;6093320;23;20451;-71
2022/11/01 06:41:07;;;;;;;25.73;12.60;;;13.50;99.90;;;;;;6092931;23;20537;-70
2022/11/01 06:43:34;;;;;;;20.90;11.90;;;13.60;99.90;;;;;;6091419;23;20511;-71
2022/11/01 06:46:01;;;;;;;25.90;14.63;;;13.60;99.90;;;;;;6093818;23;20437;-71
2022/11/01 06:48:27;;;;;;;26.80;14.23;;;13.60;99.90;;;;;;6092529;23;20451;-70
2022/11/01 06:50:55;;;;;;;29.73;14.00;;;13.60;99.90;;;;;;6093145;23;20449;-71
2022/11/01 06:53:22;;;;;;;22.17;13.30;;;13.60;99.90;;;;;;6093278;23;20506;-71
2022/11/01 06:55:49;;;;;;;26.00;12.97;;;13.60;99.90;;;;;;6093444;23;20431;-71
2022/11/01 06:58:17;;;;;;;22.57;13.97;;;13.70;99.90;;;;;;6093125;23;20446;-71
2022/11/01 07:00:44;;;;;;;20.33;13.40;;;13.70;99.90;;;;;;6093042;23;20448;-71
2022/11/01 07:03:13;;;;;;;18.13;14.00;;;13.70;99.90;;;;;;6092878;23;20427;-71
2022/11/01 07:05:40;;;;;;;19.10;12.80;;;13.70;99.90;;;;;;6093138;23;20426;-71
2022/11/01 07:08:08;;;;;;;23.87;11.20;;;13.70;99.90;;;;;;6091402;23;20549;-71
2022/11/01 07:10:37;;;;;;;28.60;13.23;;;13.70;99.90;;;;;;6092308;23;20431;-71
2022/11/01 07:13:05;;;;;;;20.37;14.10;;;13.70;99.90;;;;;;6091263;23;20434;-71
2022/11/01 07:15:33;;;;;;;22.63;13.00;;;13.70;99.90;;;;;;6095154;23;20538;-72
2022/11/01 07:18:02;;;;;;;23.67;14.10;;;13.80;99.90;;;;;;6093628;23;20454;-71
2022/11/01 07:20:30;;;;;;;26.83;11.50;;;13.80;99.90;;;;;;6094290;23;20526;-72
2022/11/01 07:22:59;;;;;;;25.13;14.63;;;13.80;99.90;;;;;;6093373;23;20431;-72
2022/11/01 07:25:25;;;;;;;24.90;13.53;;;13.80;99.90;;;;;;6094746;23;20482;-71
2022/11/01 07:27:52;;;;;;;23.50;11.53;;;13.80;99.90;;;;;;6094391;23;20454;-70
2022/11/01 07:30:19;;;;;;;17.63;12.03;;;13.80;99.90;;;;;;6094725;23;20428;-72
2022/11/01 07:32:47;;;;;;;17.27;11.17;;;13.80;99.90;;;;;;6094931;23;20435;-71
2022/11/01 07:35:14;;;;;;;17.00;9.97;;;13.90;99.90;;;;;;6095569;23;20428;-72
2022/11/01 07:37:41;;;;;;;18.87;12.37;;;13.90;99.90;;;;;;6093914;23;20434;-70
2022/11/01 07:40:09;;;;;;;19.27;10.90;;;13.90;99.90;;;;;;6093905;23;20431;-71
2022/11/01 07:42:41;;;;;;;18.17;12.03;;;13.90;99.90;;;;;;6093373;23;20435;-70
2022/11/01 07:45:09;;;;;;;19.23;10.87;;;13.90;99.90;;;;;;6094443;23;20409;-71
2022/11/01 07:47:36;;;;;;;17.50;11.87;;;13.90;99.90;;;;;;6094598;23;20450;-71
2022/11/01 07:50:05;;;;;;;18.23;11.50;;;13.90;99.90;;;;;;6094891;23;20435;-72
2022/11/01 07:52:31;;;;;;;21.53;12.77;;;13.90;99.90;;;;;;6093647;23;20424;-71
2022/11/01 07:54:58;;;;;;;19.60;10.13;;;14.00;99.90;;;;;;6095299;23;20426;-72
2022/11/01 07:57:25;;;;;;;17.83;11.80;;;14.00;99.90;;;;;;6093898;23;20431;-70
2022/11/01 07:59:52;;;;;;;15.90;9.80;;;14.10;99.90;;;;;;6094482;23;20965;-71
2022/11/01 08:02:18;;;;;;;11.50;9.80;;;14.10;99.90;;;;;;6093995;23;20459;-71
2022/11/01 08:04:45;;;;;;;10.57;9.47;;;14.20;99.90;;;;;;6094019;23;20938;-70
2022/11/01 08:07:13;;;;;;;21.73;10.47;;;14.20;99.90;;;;;;6094048;23;20733;-72
2022/11/01 08:09:41;;;;;;;10.83;8.30;;;14.30;99.90;;;;;;6094764;23;20448;-72
2022/11/01 08:12:08;;;;;;;15.47;9.33;;;14.30;99.90;;;;;;6093968;23;20423;-72
2022/11/01 08:14:34;;;;;;;17.43;11.40;;;14.40;99.90;;;;;;6094204;23;20743;-72
2022/11/01 08:17:01;;;;;;;15.87;10.60;;;14.40;99.90;;;;;;6093833;23;20432;-72
2022/11/01 08:19:28;;;;;;;10.60;8.50;;;14.40;99.90;;;;;;6094585;23;20788;-72
2022/11/01 08:21:57;;;;;;;16.03;9.30;;;14.50;99.90;;;;;;6093154;23;20456;-72
2022/11/01 08:24:25;;;;;;;11.40;9.37;;;14.50;99.90;;;;;;6091029;23;20435;-72
2022/11/01 08:26:52;;;;;;;12.90;7.93;;;14.60;99.90;;;;;;6093350;23;20551;-71
2022/11/01 08:29:19;;;;;;;13.30;8.93;;;14.80;99.90;;;;;;6094059;23;20492;-71
2022/11/01 08:31:48;;;;;;;9.90;7.70;;;15.10;99.90;;;;;;6094743;23;20432;-70
2022/11/01 08:34:14;;;;;;;10.37;8.20;;;15.20;99.90;;;;;;6093253;23;20844;-70
2022/11/01 08:36:41;;;;;;;6.40;5.80;;;15.30;99.90;;;;;;6094032;23;20425;-72
2022/11/01 08:39:08;;;;;;;10.07;5.67;;;15.40;99.90;;;;;;6094524;23;20952;-72
2022/11/01 08:41:36;;;;;;;5.90;5.30;;;15.50;99.90;;;;;;6093355;23;20449;-71
2022/11/01 08:44:02;;;;;;;6.50;5.90;;;15.60;99.90;;;;;;6093335;23;20426;-72
2022/11/01 08:46:29;;;;;;;6.37;5.13;;;15.70;99.90;;;;;;6093275;23;20800;-70
2022/11/01 08:48:58;;;;;;;11.03;5.30;;;15.70;99.90;;;;;;6095135;23;20455;-71
2022/11/01 08:51:25;;;;;;;3.23;3.03;;;15.80;99.90;;;;;;6097197;23;20421;-70
2022/11/01 08:53:54;;;;;;;5.97;4.40;;;15.90;99.90;;;;;;6094281;23;20426;-71
2022/11/01 08:56:23;;;;;;;3.30;3.10;;;16.00;99.90;;;;;;6087451;23;20433;-70
2022/11/01 08:58:52;;;;;;;4.97;2.83;;;16.00;99.90;;;;;;6087853;23;20505;-71
2022/11/01 09:01:18;;;;;;;3.80;3.60;;;16.10;99.90;;;;;;6091450;23;20478;-71
2022/11/01 09:03:45;;;;;;;2.77;2.60;;;16.20;99.90;;;;;;6091945;23;20430;-71
2022/11/01 09:06:13;;;;;;;2.43;2.33;;;16.30;99.90;;;;;;6094260;23;20888;-71
2022/11/01 09:08:39;;;;;;;3.07;2.97;;;16.30;99.90;;;;;;6092727;23;20457;-69
2022/11/01 09:11:06;;;;;;;3.13;2.93;;;16.30;99.90;;;;;;6102029;23;20423;-70
2022/11/01 09:13:34;;;;;;;3.20;3.10;;;16.40;99.90;;;;;;6092461;23;20743;-68
2022/11/01 09:16:05;;;;;;;3.00;2.70;;;16.40;99.90;;;;;;6090536;23;20525;-69
2022/11/01 09:18:31;;;;;;;9.73;3.10;;;16.40;99.90;;;;;;6093880;23;20485;-70
2022/11/01 09:20:58;;;;;;;3.60;3.03;;;16.40;99.90;;;;;;6093073;23;20458;-70
2022/11/01 09:23:25;;;;;;;2.87;2.67;;;16.40;99.90;;;;;;6092092;23;20493;-70
2022/11/01 09:25:52;;;;;;;3.27;3.17;;;16.50;99.90;;;;;;6092900;23;20438;-71
2022/11/01 09:28:19;;;;;;;2.90;2.70;;;16.50;99.90;;;;;;6090646;23;20772;-72
2022/11/01 09:30:46;;;;;;;2.93;2.50;;;16.60;99.90;;;;;;6091865;23;20433;-72
2022/11/01 09:33:14;;;;;;;2.97;2.77;;;16.60;99.90;;;;;;6090981;23;20446;-72
2022/11/01 09:35:40;;;;;;;2.83;2.73;;;16.70;99.90;;;;;;6091931;23;20442;-71
2022/11/01 09:38:07;;;;;;;3.83;3.53;;;16.70;99.90;;;;;;6093776;23;20772;-71
2022/11/01 09:40:43;;;;;;;4.93;3.57;;;16.80;99.90;;;;;;6093207;23;20427;-70
2022/11/01 09:43:15;;;;;;;3.00;2.80;;;16.80;99.90;;;;;;6091779;23;20502;-71
2022/11/01 09:45:42;;;;;;;2.20;2.10;;;16.90;99.90;;;;;;6093153;23;20418;-70
2022/11/01 09:48:10;;;;;;;2.17;2.07;;;16.90;99.90;;;;;;6093710;23;20490;-70
2022/11/01 09:50:42;;;;;;;2.10;1.90;;;17.00;99.90;;;;;;6093530;23;20495;-70
2022/11/01 09:53:15;;;;;;;1.93;1.93;;;17.00;99.90;;;;;;6093282;23;20435;-70
2022/11/01 09:55:49;;;;;;;1.90;1.80;;;17.10;99.90;;;;;;6093158;23;20764;-70
2022/11/01 09:58:28;;;;;;;3.77;2.70;;;17.10;99.90;;;;;;6091796;23;20452;-71
2022/11/01 10:01:10;;;;;;;2.00;1.93;;;17.10;99.90;;;;;;6092344;23;20446;-72
2022/11/01 10:03:57;;;;;;;2.17;2.07;;;17.10;99.90;;;;;;6092511;23;20411;-69
2022/11/01 10:06:31;;;;;;;2.07;1.83;;;17.20;99.90;;;;;;6092262;23;20717;-70
2022/11/01 10:09:09;;;;;;;1.67;1.67;;;17.20;99.90;;;;;;6092644;23;20819;-70
2022/11/01 10:11:51;;;;;;;2.13;2.03;;;17.20;99.90;;;;;;6091747;23;20413;-70
2022/11/01 10:14:39;;;;;;;2.70;2.60;;;17.30;99.90;;;;;;6093159;23;20414;-70
2022/11/01 10:17:12;;;;;;;3.03;2.93;;;17.30;99.90;;;;;;6093919;23;20412;-70
2022/11/01 10:19:40;;;;;;;2.13;2.00;;;17.40;99.90;;;;;;6093815;23;20462;-70
2022/11/01 10:22:14;;;;;;;2.17;2.07;;;17.40;99.90;;;;;;6093825;23;20457;-70
2022/11/01 10:24:46;;;;;;;2.83;1.90;;;17.40;99.90;;;;;;6093092;23;20426;-68
2022/11/01 10:27:18;;;;;;;1.67;1.67;;;17.40;99.90;;;;;;6092611;23;20433;-69
2022/11/01 10:29:48;;;;;;;1.57;1.57;;;17.40;99.90;;;;;;6093085;23;20509;-70
2022/11/01 10:32:24;;;;;;;1.87;1.87;;;17.40;99.90;;;;;;6092266;23;20886;-69
2022/11/01 10:34:53;;;;;;;3.70;2.53;;;17.40;99.90;;;;;;6093211;23;21263;-70
2022/11/01 10:37:26;;;;;;;1.70;1.70;;;17.40;99.90;;;;;;6093328;23;20733;-70
2022/11/01 10:39:56;;;;;;;1.60;1.50;;;17.40;99.90;;;;;;6093380;23;20472;-71
2022/11/01 10:42:23;;;;;;;2.07;1.97;;;17.40;99.90;;;;;;6093209;23;20462;-70
2022/11/01 10:44:54;;;;;;;3.53;1.77;;;17.40;99.90;;;;;;6093029;23;20936;-71
2022/11/01 10:47:22;;;;;;;1.23;1.20;;;17.40;99.90;;;;;;6094337;23;20475;-71
2022/11/01 10:49:52;;;;;;;1.50;1.40;;;17.40;99.90;;;;;;6095867;23;20554;-71
2022/11/01 10:52:25;;;;;;;1.70;1.70;;;17.50;99.90;;;;;;6094311;23;20431;-70
2022/11/01 10:54:53;;;;;;;2.57;1.43;;;17.50;99.90;;;;;;6094575;23;20414;-69
2022/11/01 10:57:29;;;;;;;1.40;1.40;;;17.50;99.90;;;;;;6092065;23;20429;-69
2022/11/01 10:59:57;;;;;;;2.10;1.93;;;17.50;99.90;;;;;;6094405;23;20750;-69
2022/11/01 11:02:28;;;;;;;1.60;1.60;;;17.60;99.90;;;;;;6094584;23;20454;-70
2022/11/01 11:04:56;;;;;;;1.67;1.67;;;17.60;99.90;;;;;;6094914;23;20816;-71
2022/11/01 11:07:28;;;;;;;1.43;1.43;;;17.60;99.90;;;;;;6094951;23;20433;-70
2022/11/01 11:09:56;;;;;;;2.30;2.30;;;17.70;99.90;;;;;;6093270;23;20419;-71
2022/11/01 11:12:25;;;;;;;1.50;1.50;;;17.80;99.90;;;;;;6094561;23;20427;-70
2022/11/01 11:14:56;;;;;;;2.17;2.03;;;17.80;99.90;;;;;;6094179;23;20807;-71
2022/11/01 11:17:27;;;;;;;2.07;2.07;;;17.80;99.90;;;;;;6096013;23;20471;-71
2022/11/01 11:19:55;;;;;;;1.83;1.73;;;17.90;99.90;;;;;;6095147;23;20457;-69
2022/11/01 11:22:25;;;;;;;1.73;1.73;;;18.00;99.90;;;;;;6094127;23;20449;-70
2022/11/01 11:24:56;;;;;;;1.13;1.13;;;17.90;99.90;;;;;;6094138;23;20760;-70
2022/11/01 11:27:26;;;;;;;1.00;1.00;;;18.00;99.90;;;;;;6094801;23;20468;-70
2022/11/01 11:29:55;;;;;;;1.17;1.17;;;18.10;99.90;;;;;;6094887;23;20774;-70
2022/11/01 11:32:25;;;;;;;1.40;1.40;;;18.20;99.90;;;;;;6094736;23;20408;-70
2022/11/01 11:34:56;;;;;;;1.60;1.60;;;18.30;99.90;;;;;;6094436;23;20427;-70
2022/11/01 11:37:26;;;;;;;1.43;1.33;;;18.20;99.90;;;;;;6094005;23;20789;-70
2022/11/01 11:40:14;;;;;;;1.10;1.10;;;18.20;99.90;;;;;;6092447;23;20456;-70
2022/11/01 11:42:40;;;;;;;1.10;1.10;;;18.00;99.90;;;;;;6091096;23;20439;-71
2022/11/01 11:45:16;;;;;;;0.80;0.80;;;17.90;99.90;;;;;;6094519;23;20465;-70
2022/11/01 11:47:43;;;;;;;0.50;0.50;;;17.80;99.90;;;;;;6095155;23;20450;-71
2022/11/01 11:50:33;;;;;;;2.50;1.30;;;17.60;99.90;;;;;;6096078;23;21009;-70
2022/11/01 11:53:06;;;;;;;4.23;0.57;;;17.60;99.90;;;;;;6094565;23;20446;-71
2022/11/01 11:55:45;;;;;;;0.40;0.40;;;17.70;99.90;;;;;;6096105;23;21072;-71
2022/11/01 11:58:26;;;;;;;0.40;0.40;;;17.70;99.90;;;;;;6093888;23;20422;-68
2022/11/01 12:01:00;;;;;;;0.60;0.50;;;17.80;99.90;;;;;;6094388;23;20505;-69
2022/11/01 12:03:28;;;;;;;0.30;0.30;;;17.70;99.90;;;;;;6094912;23;20912;-70
2022/11/01 12:05:58;;;;;;;0.40;0.40;;;17.70;99.90;;;;;;6095479;23;20764;-70
2022/11/01 12:08:44;;;;;;;0.30;0.30;;;17.70;99.90;;;;;;6095909;23;20410;-70
2022/11/01 12:11:12;;;;;;;0.53;0.50;;;17.60;99.90;;;;;;6094909;23;20450;-70
2022/11/01 12:13:41;;;;;;;2.50;0.63;;;17.60;99.90;;;;;;6094509;23;20423;-70
2022/11/01 12:16:16;;;;;;;0.30;0.30;;;17.60;99.90;;;;;;6092946;23;21184;-69
2022/11/01 12:18:51;;;;;;;0.30;0.30;;;17.60;99.90;;;;;;6094716;23;20414;-69
2022/11/01 12:21:21;;;;;;;0.30;0.27;;;17.60;99.90;;;;;;6094103;23;20481;-68
2022/11/01 12:23:52;;;;;;;1.03;0.47;;;17.60;99.90;;;;;;6094296;23;20456;-69
2022/11/01 12:26:21;;;;;;;0.30;0.30;;;17.50;99.90;;;;;;6093327;23;20791;-62
2022/11/01 12:28:54;;;;;;;1.60;0.80;;;17.50;99.90;;;;;;6092010;23;20555;-63
2022/11/01 12:31:22;;;;;;;1.10;0.43;;;17.50;99.90;;;;;;6094648;23;20448;-65
2022/11/01 12:33:54;;;;;;;1.13;0.57;;;17.50;99.90;;;;;;6092933;23;20422;-64
2022/11/01 12:36:27;;;;;;;0.30;0.30;;;17.50;99.90;;;;;;6092107;23;20415;-64
2022/11/01 12:38:59;;;;;;;0.40;0.40;;;17.40;99.90;;;;;;6093806;23;20411;-64
2022/11/01 12:41:33;;;;;;;0.20;0.20;;;17.40;99.90;;;;;;6093755;23;20448;-64
2022/11/01 12:44:27;;;;;;;1.60;1.50;;;17.40;99.90;;;;;;6091213;23;20407;-64
2022/11/01 12:46:58;;;;;;;1.07;0.60;;;17.40;99.90;;;;;;6094125;23;20406;-64
2022/11/01 12:49:32;;;;;;;0.80;0.47;;;17.40;99.90;;;;;;6092599;23;20941;-65
2022/11/01 12:52:06;;;;;;;0.40;0.40;;;17.40;99.90;;;;;;6094157;23;20417;-64
2022/11/01 12:54:38;;;;;;;0.40;0.40;;;17.30;99.90;;;;;;6092878;23;20408;-64
2022/11/01 12:57:13;;;;;;;3.00;0.70;;;17.30;99.90;;;;;;6093028;23;20818;-63
2022/11/01 12:59:41;;;;;;;0.30;0.30;;;17.30;99.90;;;;;;6093757;23;20440;-64
2022/11/01 13:02:26;;;;;;;2.33;0.30;;;17.40;99.90;;;;;;6092650;23;20446;-65
2022/11/01 13:04:59;;;;;;;0.93;0.70;;;17.30;99.90;;;;;;6092280;23;20415;-64
2022/11/01 13:07:37;;;;;;;2.20;0.63;;;17.30;99.90;;;;;;6094640;23;20535;-66
2022/11/01 13:10:13;;;;;;;0.50;0.50;;;17.30;99.90;;;;;;6094758;23;20455;-65
2022/11/01 13:12:48;;;;;;;3.03;0.83;;;17.20;99.90;;;;;;6091925;23;20411;-62
2022/11/01 13:15:21;;;;;;;0.40;0.33;;;17.20;99.90;;;;;;6093018;23;20417;-67
2022/11/01 13:17:54;;;;;;;2.00;0.30;;;17.10;99.90;;;;;;6092286;23;20419;-67
2022/11/01 13:20:30;;;;;;;0.37;0.37;;;17.10;99.90;;;;;;6093635;23;20790;-62
2022/11/01 13:23:05;;;;;;;0.83;0.40;;;17.10;99.90;;;;;;6091649;23;20432;-64
2022/11/01 13:25:38;;;;;;;1.50;0.40;;;17.10;99.90;;;;;;6091624;23;20823;-64
2022/11/01 13:28:18;;;;;;;0.40;0.40;;;17.10;99.90;;;;;;6092568;23;20522;-64
2022/11/01 13:30:50;;;;;;;0.40;0.30;;;17.10;99.90;;;;;;6093867;23;20449;-65
2022/11/01 13:33:24;;;;;;;0.50;0.40;;;17.10;99.90;;;;;;6093693;23;20405;-70
2022/11/01 13:35:57;;;;;;;0.30;0.30;;;17.00;99.90;;;;;;6094379;23;20410;-70
2022/11/01 13:38:34;;;;;;;0.53;0.53;;;17.00;99.90;;;;;;6094242;23;20437;-70
2022/11/01 13:41:10;;;;;;;0.50;0.50;;;16.90;99.90;;;;;;6094132;23;20591;-70
2022/11/01 13:43:41;;;;;;;0.73;0.73;;;16.90;99.90;;;;;;6092904;23;20489;-69
2022/11/01 13:46:31;;;;;;;2.37;0.40;;;16.90;99.90;;;;;;6094749;23;20409;-69
2022/11/01 13:49:30;;;;;;;0.20;0.20;;;16.90;99.90;;;;;;6094076;23;20416;-69
2022/11/01 13:52:01;;;;;;;1.33;0.70;;;16.90;99.90;;;;;;6095183;23;20528;-70
2022/11/01 13:54:35;;;;;;;0.30;0.27;;;16.80;99.90;;;;;;6094323;23;20406;-71
2022/11/01 13:57:11;;;;;;;4.63;0.70;;;16.80;99.90;;;;;;6094856;23;20411;-70
2022/11/01 13:59:44;;;;;;;0.53;0.20;;;16.80;99.90;;;;;;6093935;23;20441;-70
2022/11/01 14:02:54;;;;;;;0.57;0.57;;;16.80;99.90;;;;;;6094697;23;20874;-70
2022/11/01 14:05:21;;;;;;;1.07;0.33;;;16.80;99.90;;;;;;6095113;23;20413;-70
2022/11/01 14:08:25;;;;;;;1.80;0.43;;;16.70;99.90;;;;;;6093708;23;20432;-70
2022/11/01 14:10:52;;;;;;;0.47;0.37;;;16.70;99.90;;;;;;6094395;23;20462;-70
2022/11/01 14:13:31;;;;;;;0.43;0.40;;;16.70;99.90;;;;;;6093899;23;20422;-69
2022/11/01 14:16:18;;;;;;;2.00;0.50;;;16.60;99.90;;;;;;6093632;23;20447;-69
2022/11/01 14:19:11;;;;;;;1.43;0.83;;;16.60;99.90;;;;;;6089980;23;20512;-69
2022/11/01 14:21:42;;;;;;;6.30;0.57;;;16.60;99.90;;;;;;6094069;23;20436;-70
2022/11/01 14:24:25;;;;;;;0.20;0.20;;;16.50;99.90;;;;;;6093288;23;20433;-69
2022/11/01 14:27:21;;;;;;;9.23;0.53;;;16.50;99.90;;;;;;6096117;23;20410;-70
2022/11/01 14:29:54;;;;;;;1.43;0.30;;;16.50;99.90;;;;;;6096138;23;20501;-70
2022/11/01 14:32:23;;;;;;;2.10;0.80;;;16.40;99.90;;;;;;6097288;23;20410;-70
2022/11/01 14:35:04;;;;;;;3.10;0.30;;;16.30;99.90;;;;;;6096122;23;20432;-69
2022/11/01 14:37:38;;;;;;;1.33;0.57;;;16.30;99.90;;;;;;6096602;23;20409;-70
2022/11/01 14:40:26;;;;;;;0.70;0.40;;;16.20;99.90;;;;;;6095936;23;20956;-70
2022/11/01 14:42:56;;;;;;;1.60;0.80;;;16.20;99.90;;;;;;6094970;23;20963;-69
2022/11/01 14:45:32;;;;;;;0.93;0.93;;;16.10;99.90;;;;;;6096573;23;20426;-71
2022/11/01 14:48:05;;;;;;;0.70;0.47;;;16.10;99.90;;;;;;6096515;23;20410;-71
2022/11/01 14:50:42;;;;;;;0.67;0.67;;;16.00;99.90;;;;;;6096576;23;20455;-70
2022/11/01 14:53:18;;;;;;;2.83;0.30;;;16.00;99.90;;;;;;6096395;23;20462;-70
2022/11/01 14:55:45;;;;;;;0.20;0.20;;;15.90;99.90;;;;;;6095643;23;20447;-70
2022/11/01 14:58:21;;;;;;;1.03;0.40;;;15.90;99.90;;;;;;6096267;23;20456;-71
2022/11/01 15:00:51;;;;;;;0.33;0.30;;;15.90;99.90;;;;;;6096604;23;20445;-70
2022/11/01 15:03:19;;;;;;;7.13;1.83;;;15.80;99.90;;;;;;6095103;23;20523;-69
2022/11/01 15:05:48;;;;;;;0.60;0.60;;;15.80;99.90;;;;;;6096243;23;20903;-69
2022/11/01 15:08:31;;;;;;;1.63;1.10;;;15.70;99.90;;;;;;6096742;23;20747;-69
2022/11/01 15:11:01;;;;;;;2.20;0.60;;;15.60;99.90;;;;;;6095503;23;20492;-68
2022/11/01 15:13:29;;;;;;;2.23;0.60;;;15.60;99.90;;;;;;6095265;23;20420;-70
2022/11/01 15:16:03;;;;;;;2.83;1.17;;;15.50;99.90;;;;;;6096064;23;20510;-70
2022/11/01 15:18:32;;;;;;;0.57;0.40;;;15.40;99.90;;;;;;6095534;23;20415;-71
2022/11/01 15:21:00;;;;;;;2.47;0.67;;;15.40;99.90;;;;;;6096167;23;20465;-70
2022/11/01 15:23:32;;;;;;;0.33;0.33;;;15.30;99.90;;;;;;6096115;23;20453;-70
2022/11/01 15:26:04;;;;;;;4.27;0.70;;;15.20;99.90;;;;;;6095408;23;20459;-69
2022/11/01 15:28:36;;;;;;;3.23;0.67;;;15.20;99.90;;;;;;6096456;23;20412;-69
2022/11/01 15:31:06;;;;;;;0.33;0.33;;;15.10;99.90;;;;;;6096499;23;20904;-68
2022/11/01 15:33:33;;;;;;;0.57;0.30;;;15.00;99.90;;;;;;6096172;23;20424;-69
2022/11/01 15:36:02;;;;;;;1.67;0.77;;;15.00;99.90;;;;;;6095913;23;20957;-70
2022/11/01 15:38:32;;;;;;;2.13;0.63;;;14.90;99.90;;;;;;6097200;23;20425;-70
2022/11/01 15:40:59;;;;;;;0.83;0.83;;;14.80;99.90;;;;;;6096424;23;20452;-69
2022/11/01 15:43:27;;;;;;;3.70;0.63;;;14.70;99.90;;;;;;6095401;23;20748;-70
2022/11/01 15:45:56;;;;;;;7.07;1.10;;;14.60;99.90;;;;;;6094800;23;20424;-69
2022/11/01 15:48:27;;;;;;;1.23;0.60;;;14.40;99.90;;;;;;6096146;23;20431;-70
2022/11/01 15:50:57;;;;;;;0.37;0.37;;;14.40;99.90;;;;;;6097178;23;20967;-71
2022/11/01 15:53:26;;;;;;;1.90;0.90;;;14.30;99.90;;;;;;6097421;23;20880;-70
2022/11/01 15:55:56;;;;;;;1.80;1.33;;;14.20;99.90;;;;;;6097407;23;20430;-69
2022/11/01 15:58:27;;;;;;;0.60;0.60;;;14.20;99.90;;;;;;6097133;23;20495;-70
2022/11/01 16:00:58;;;;;;;3.93;1.20;;;14.20;99.90;;;;;;6096308;23;20473;-70
2022/11/01 16:03:30;;;;;;;1.93;0.60;;;14.10;99.90;;;;;;6096072;23;20780;-70
2022/11/01 16:05:59;;;;;;;1.27;1.27;;;14.00;99.90;;;;;;6096472;23;20411;-71
2022/11/01 16:08:31;;;;;;;2.30;1.37;;;14.00;99.90;;;;;;6096061;23;20888;-70
2022/11/01 16:10:58;;;;;;;6.20;0.90;;;14.00;99.90;;;;;;6096039;23;20534;-69
2022/11/01 16:13:25;;;;;;;0.97;0.97;;;13.90;99.90;;;;;;6094980;23;20493;-70
2022/11/01 16:16:04;;;;;;;1.47;1.37;;;13.80;99.90;;;;;;6096630;23;20441;-68
2022/11/01 16:18:36;;;;;;;1.33;1.23;;;13.80;99.90;;;;;;6096242;23;20443;-69
2022/11/01 16:21:04;;;;;;;3.90;1.07;;;13.60;99.90;;;;;;6096925;23;20455;-70
2022/11/01 16:23:32;;;;;;;5.60;1.60;;;13.50;99.90;;;;;;6105734;23;20474;-70
2022/11/01 16:26:04;;;;;;;0.93;0.93;;;13.50;99.90;;;;;;6096259;23;20431;-69
2022/11/01 16:28:38;;;;;;;2.67;1.03;;;13.40;99.90;;;;;;6095162;23;20426;-70
2022/11/01 16:31:18;;;;;;;4.23;1.23;;;13.30;99.90;;;;;;6096556;23;20506;-69
2022/11/01 16:33:47;;;;;;;1.30;1.27;;;13.20;99.90;;;;;;6096212;23;20484;-70
2022/11/01 16:36:34;;;;;;;4.83;1.70;;;13.10;99.90;;;;;;6096188;23;20429;-70
2022/11/01 16:39:01;;;;;;;1.23;1.23;;;13.10;99.90;;;;;;6096523;23;20486;-69
2022/11/01 16:41:32;;;;;;;1.13;1.13;;;13.00;99.90;;;;;;6095113;23;20453;-70
2022/11/01 16:44:01;;;;;;;11.43;1.40;;;12.90;99.90;;;;;;6095807;23;20434;-70
2022/11/01 16:46:29;;;;;;;0.83;0.83;;;12.90;99.90;;;;;;6096463;23;20431;-70
2022/11/01 16:48:59;;;;;;;1.17;1.17;;;12.90;99.90;;;;;;6105713;23;20784;-71
2022/11/01 16:51:28;;;;;;;3.20;1.03;;;12.90;99.90;;;;;;6096695;23;20446;-70
2022/11/01 16:53:55;;;;;;;1.77;1.27;;;12.90;99.90;;;;;;6095272;23;20480;-70
2022/11/01 16:56:25;;;;;;;2.90;1.40;;;13.00;99.90;;;;;;6094991;23;20451;-71
2022/11/01 16:58:53;;;;;;;1.47;1.30;;;13.00;99.90;;;;;;6093665;23;20438;-70
2022/11/01 17:01:23;;;;;;;1.10;1.00;;;12.90;99.90;;;;;;6095320;23;20470;-70
2022/11/01 17:03:51;;;;;;;2.83;1.07;;;12.90;99.90;;;;;;6093581;23;20976;-70
2022/11/01 17:06:19;;;;;;;1.30;1.27;;;12.90;99.90;;;;;;6094729;23;20426;-70
2022/11/01 17:08:46;;;;;;;15.00;1.33;;;12.90;99.90;;;;;;6094721;23;20932;-70
2022/11/01 17:11:13;;;;;;;0.60;0.60;;;12.90;99.90;;;;;;6094377;23;20453;-69
2022/11/01 17:13:40;;;;;;;0.53;0.53;;;12.90;99.90;;;;;;6094167;23;20481;-69
2022/11/01 17:16:15;;;;;;;6.47;1.50;;;12.90;99.90;;;;;;6094659;23;20493;-69
2022/11/01 17:18:42;;;;;;;5.30;1.20;;;12.90;99.90;;;;;;6095079;23;20418;-69
2022/11/01 17:21:10;;;;;;;1.57;0.80;;;12.90;99.90;;;;;;6093239;23;20478;-66
2022/11/01 17:23:38;;;;;;;0.90;0.90;;;12.90;99.90;;;;;;6092750;23;20509;-70
2022/11/01 17:26:08;;;;;;;7.90;1.20;;;12.90;99.90;;;;;;6093323;23;20771;-69
2022/11/01 17:28:35;;;;;;;2.20;1.27;;;12.90;99.90;;;;;;6093634;23;20411;-69
2022/11/01 17:31:02;;;;;;;1.37;0.83;;;12.80;99.90;;;;;;6093649;23;20455;-69
2022/11/01 17:33:29;;;;;;;2.83;1.67;;;12.80;99.90;;;;;;6091909;23;20425;-66
2022/11/01 17:35:56;;;;;;;7.63;0.97;;;12.80;99.90;;;;;;6094213;23;20478;-67
2022/11/01 17:38:26;;;;;;;0.80;0.80;;;12.70;99.90;;;;;;6093898;23;20427;-66
2022/11/01 17:40:55;;;;;;;1.20;1.13;;;12.70;99.90;;;;;;6093285;23;20952;-68
2022/11/01 17:43:22;;;;;;;4.03;1.77;;;12.60;99.90;;;;;;6092354;23;20553;-68
2022/11/01 17:45:50;;;;;;;1.35;1.15;;;12.50;99.90;;;;;;6093975;23;20453;-68
2022/11/01 17:48:17;;;;;;;2.10;0.90;;;12.50;99.90;;;;;;6092825;23;20187;-67
2022/11/01 17:50:45;;;;;;;1.97;1.50;;;12.40;99.90;;;;;;6093604;23;20458;-67
2022/11/01 17:53:13;;;;;;;0.90;0.57;;;12.40;99.90;;;;;;6092610;23;20932;-67
2022/11/01 17:55:41;;;;;;;1.13;1.13;;;12.40;99.90;;;;;;6093096;23;20426;-67
2022/11/01 17:58:10;;;;;;;1.08;1.00;;;12.40;99.90;;;;;;6092727;23;20430;-67